Wetterdaten: Woche 29.11.10 - 05.12.10 (KW48)
Datum Zeit Temp. A. Feuchte A. Luftdruck Regen Wind Richtung Taupunkt Windchill Windben
29.11.2010 00:00 -0,6 C 87 % 999,3 hPa 0,0 l/m 0,0 km/h O -2,5 C -0,6 C 0,0 km/h
29.11.2010 01:00 -0,6 C 87 % 999,5 hPa 0,0 l/m 0,0 km/h O -2,5 C -0,6 C 0,0 km/h
29.11.2010 02:00 -0,6 C 87 % 999,9 hPa 0,0 l/m 0,0 km/h O -2,5 C -0,6 C 0,0 km/h
29.11.2010 03:00 -0,8 C 87 % 1000,0 hPa 0,0 l/m 0,0 km/h O -2,7 C -0,8 C 0,0 km/h
29.11.2010 04:00 -0,8 C 87 % 1000,0 hPa 0,0 l/m 0,0 km/h O -2,7 C -0,8 C 0,0 km/h
29.11.2010 05:00 -0,7 C 87 % 1000,6 hPa 0,0 l/m 0,0 km/h O -2,6 C -0,7 C 0,0 km/h
29.11.2010 06:00 -0,8 C 87 % 1001,0 hPa 0,0 l/m 0,0 km/h O -2,7 C -0,8 C 0,0 km/h
29.11.2010 07:00 -0,7 C 87 % 1001,7 hPa 0,0 l/m 0,0 km/h O -2,6 C -0,7 C 0,0 km/h
29.11.2010 08:00 -0,5 C 87 % 1002,5 hPa 0,0 l/m 0,0 km/h S -2,4 C -0,5 C 0,0 km/h
29.11.2010 09:00 0,6 C 87 % 1002,8 hPa 0,0 l/m 0,0 km/h W-SW -1,3 C 0,6 C 0,0 km/h
29.11.2010 10:00 0,9 C 88 % 1003,5 hPa 0,0 l/m 20,7 km/h SW -0,9 C -8,8 C 11,5 km/h
29.11.2010 11:00 1,8 C 84 % 1003,7 hPa 0,0 l/m 31,8 km/h S -0,6 C -11,4 C 17,6 km/h
29.11.2010 12:00 1,4 C 84 % 1003,8 hPa 0,0 l/m 24,0 km/h S-SW -1,0 C -9,5 C 13,3 km/h
29.11.2010 13:00 1,3 C 85 % 1004,6 hPa 0,0 l/m 24,6 km/h W-SW -0,9 C -9,8 C 13,7 km/h
29.11.2010 14:00 1,2 C 85 % 1004,8 hPa 0,0 l/m 24,0 km/h W-SW -1,0 C -9,7 C 13,3 km/h
29.11.2010 15:00 0,8 C 86 % 1005,1 hPa 0,0 l/m 31,1 km/h W-SW -1,3 C -12,6 C 17,3 km/h
29.11.2010 16:00 0,4 C 87 % 1005,9 hPa 0,0 l/m 22,0 km/h W-SW -1,5 C -10,0 C 12,2 km/h
29.11.2010 17:00 0,4 C 87 % 1006,7 hPa 0,0 l/m 9,7 km/h W-SW -1,5 C -2,8 C 5,4 km/h
29.11.2010 18:00 0,3 C 87 % 1007,1 hPa 0,0 l/m 12,3 km/h W-SW -1,6 C -4,9 C 6,8 km/h
29.11.2010 19:00 0,1 C 86 % 1007,6 hPa 0,0 l/m 0,0 km/h W-SW -2,0 C 0,1 C 0,0 km/h
29.11.2010 20:00 -0,2 C 87 % 1008,2 hPa 0,0 l/m 0,0 km/h W-NW -2,1 C -0,2 C 0,0 km/h
29.11.2010 21:00 -1,4 C 88 % 1008,9 hPa 0,0 l/m 0,0 km/h NW -3,1 C -1,4 C 0,0 km/h
29.11.2010 22:00 -3,7 C 89 % 1009,3 hPa 0,0 l/m 0,0 km/h O-SO -5,2 C -3,7 C 0,0 km/h
29.11.2010 23:00 -4,2 C 89 % 1009,2 hPa 0,0 l/m 0,0 km/h O-SO -5,7 C -4,2 C 0,0 km/h
30.11.2010 00:00 -5,5 C 89 % 1009,7 hPa 0,0 l/m 0,0 km/h O-SO -7,0 C -5,5 C 0,0 km/h
30.11.2010 01:00 -5,6 C 89 % 1009,4 hPa 0,0 l/m 0,0 km/h SO -7,1 C -5,6 C 0,0 km/h
30.11.2010 02:00 -6,1 C 89 % 1009,5 hPa 0,0 l/m 0,0 km/h SO -7,6 C -6,1 C 0,0 km/h
30.11.2010 03:00 -6,4 C 89 % 1009,2 hPa 0,0 l/m 0,0 km/h SO -7,9 C -6,4 C 0,0 km/h
30.11.2010 04:00 -6,5 C 89 % 1009,1 hPa 0,0 l/m 0,0 km/h O-SO -8,0 C -6,5 C 0,0 km/h
30.11.2010 05:00 -7,1 C 89 % 1008,6 hPa 0,0 l/m 0,6 km/h O-NO -8,6 C -7,1 C 0,4 km/h
30.11.2010 06:00 -7,3 C 89 % 1008,3 hPa 0,0 l/m 0,0 km/h O-NO -8,8 C -7,3 C 0,0 km/h
30.11.2010 07:00 -7,5 C 89 % 1008,6 hPa 0,0 l/m 0,0 km/h NO -9,0 C -7,5 C 0,0 km/h
30.11.2010 08:00 -7,9 C 89 % 1008,3 hPa 0,0 l/m 0,0 km/h N-NO -9,4 C -7,9 C 0,0 km/h
30.11.2010 09:00 -1,1 C 89 % 1007,7 hPa 0,0 l/m 0,0 km/h NW -2,7 C -1,1 C 0,0 km/h
30.11.2010 10:00 0,7 C 81 % 1007,7 hPa 0,0 l/m 0,0 km/h NW -2,2 C 0,7 C 0,0 km/h
30.11.2010 11:00 -1,9 C 80 % 1006,8 hPa 0,0 l/m 0,0 km/h NW -4,9 C -1,9 C 0,0 km/h
30.11.2010 12:00 -2,7 C 85 % 1006,3 hPa 0,0 l/m 0,0 km/h W -4,9 C -2,7 C 0,0 km/h
30.11.2010 13:00 -1,7 C 85 % 1005,2 hPa 0,0 l/m 0,0 km/h W-NW -3,9 C -1,7 C 0,0 km/h
30.11.2010 14:00 -2,9 C 86 % 1004,4 hPa 0,0 l/m 0,0 km/h S -4,9 C -2,9 C 0,0 km/h
30.11.2010 15:00 -2,7 C 87 % 1004,5 hPa 0,0 l/m 0,0 km/h O-SO -4,6 C -2,7 C 0,0 km/h
30.11.2010 16:00 -3,2 C 88 % 1003,1 hPa 0,0 l/m 0,0 km/h SO -4,9 C -3,2 C 0,0 km/h
30.11.2010 17:00 -3,9 C 88 % 1002,6 hPa 0,0 l/m 0,0 km/h SO -5,6 C -3,9 C 0,0 km/h
30.11.2010 18:00 -4,4 C 89 % 1001,6 hPa 0,0 l/m 0,0 km/h SO -5,9 C -4,4 C 0,0 km/h
30.11.2010 19:00 -4,7 C 89 % 1001,6 hPa 0,0 l/m 0,0 km/h SO -6,2 C -4,7 C 0,0 km/h
30.11.2010 20:00 -5,1 C 88 % 1001,5 hPa 0,0 l/m 0,0 km/h O-SO -6,8 C -5,1 C 0,0 km/h
30.11.2010 21:00 -4,4 C 89 % 1000,8 hPa 0,0 l/m 0,0 km/h O -5,9 C -4,4 C 0,0 km/h
30.11.2010 22:00 -4,4 C 89 % 1000,1 hPa 0,0 l/m 0,0 km/h O -5,9 C -4,4 C 0,0 km/h
30.11.2010 23:00 -4,6 C 89 % 1000,4 hPa 0,0 l/m 0,0 km/h O -6,1 C -4,6 C 0,0 km/h
01.12.2010 00:00 -3,8 C 88 % 1000,1 hPa 0,0 l/m 0,0 km/h O -5,5 C -3,8 C 0,0 km/h
01.12.2010 01:00 -3,5 C 88 % 999,5 hPa 0,0 l/m 0,0 km/h O -5,2 C -3,5 C 0,0 km/h
01.12.2010 02:00 -3,3 C 88 % 998,4 hPa 0,0 l/m 0,0 km/h O -5,0 C -3,3 C 0,0 km/h
01.12.2010 03:00 -3,1 C 88 % 998,2 hPa 0,0 l/m 0,0 km/h O -4,8 C -3,1 C 0,0 km/h
01.12.2010 04:00 -2,8 C 88 % 997,2 hPa 0,0 l/m 0,0 km/h O -4,5 C -2,8 C 0,0 km/h
01.12.2010 05:00 -2,8 C 88 % 996,7 hPa 0,0 l/m 0,0 km/h O -4,5 C -2,8 C 0,0 km/h
01.12.2010 06:00 -2,7 C 88 % 996,1 hPa 0,0 l/m 0,0 km/h O -4,4 C -2,7 C 0,0 km/h
01.12.2010 07:00 -2,6 C 88 % 995,8 hPa 0,0 l/m 0,0 km/h O -4,3 C -2,6 C 0,0 km/h
01.12.2010 08:00 -2,5 C 88 % 995,7 hPa 0,0 l/m 0,0 km/h O -4,2 C -2,5 C 0,0 km/h
01.12.2010 09:00 -1,7 C 88 % 995,7 hPa 0,0 l/m 0,0 km/h O -3,4 C -1,7 C 0,0 km/h
01.12.2010 10:00 -0,5 C 88 % 995,7 hPa 0,0 l/m 0,0 km/h NW -2,2 C -0,5 C 0,0 km/h
01.12.2010 11:00 -0,3 C 86 % 995,4 hPa 0,0 l/m 0,0 km/h W-SW -2,3 C -0,3 C 0,0 km/h
01.12.2010 12:00 0,1 C 85 % 995,0 hPa 0,0 l/m 0,0 km/h W-SW -2,1 C 0,1 C 0,0 km/h
01.12.2010 13:00 -0,1 C 83 % 995,0 hPa 0,0 l/m 0,0 km/h W-SW -2,6 C -0,1 C 0,0 km/h
01.12.2010 14:00 -0,5 C 84 % 994,6 hPa 0,0 l/m 0,0 km/h W-SW -2,9 C -0,5 C 0,0 km/h
01.12.2010 15:00 -1,1 C 85 % 995,1 hPa 0,0 l/m 0,0 km/h W -3,3 C -1,1 C 0,0 km/h
01.12.2010 16:00 -1,7 C 87 % 995,6 hPa 0,0 l/m 0,0 km/h W -3,6 C -1,7 C 0,0 km/h
01.12.2010 17:00 -2,1 C 88 % 996,6 hPa 0,0 l/m 0,0 km/h W-NW -3,8 C -2,1 C 0,0 km/h
01.12.2010 18:00 -2,5 C 89 % 997,5 hPa 0,0 l/m 0,0 km/h W -4,1 C -2,5 C 0,0 km/h
01.12.2010 19:00 -2,9 C 88 % 998,3 hPa 0,0 l/m 0,0 km/h W -4,6 C -2,9 C 0,0 km/h
01.12.2010 20:00 -3,1 C 88 % 999,6 hPa 0,0 l/m 0,0 km/h W -4,8 C -3,1 C 0,0 km/h
01.12.2010 21:00 -3,1 C 88 % 1000,5 hPa 0,0 l/m 0,0 km/h W -4,8 C -3,1 C 0,0 km/h
01.12.2010 22:00 -3,2 C 88 % 1001,1 hPa 0,0 l/m 0,0 km/h W -4,9 C -3,2 C 0,0 km/h
01.12.2010 23:00 -3,2 C 88 % 1001,9 hPa 0,0 l/m 0,0 km/h W -4,9 C -3,2 C 0,0 km/h
02.12.2010 00:00 -3,2 C 88 % 1002,4 hPa 0,0 l/m 0,0 km/h W -4,9 C -3,2 C 0,0 km/h
02.12.2010 01:00 -2,8 C 88 % 1002,8 hPa 0,0 l/m 0,0 km/h W -4,5 C -2,8 C 0,0 km/h
02.12.2010 02:00 -2,6 C 88 % 1003,0 hPa 0,0 l/m 0,0 km/h W -4,3 C -2,6 C 0,0 km/h
02.12.2010 03:00 -2,6 C 88 % 1003,5 hPa 0,0 l/m 0,0 km/h W -4,3 C -2,6 C 0,0 km/h
02.12.2010 04:00 -2,9 C 88 % 1003,8 hPa 0,0 l/m 0,0 km/h S -4,6 C -2,9 C 0,0 km/h
02.12.2010 05:00 -3,3 C 88 % 1004,2 hPa 0,0 l/m 0,0 km/h S -5,0 C -3,3 C 0,0 km/h
02.12.2010 06:00 -3,1 C 88 % 1004,5 hPa 0,0 l/m 0,0 km/h W-SW -4,8 C -3,1 C 0,0 km/h
02.12.2010 07:00 -1,5 C 87 % 1005,1 hPa 0,0 l/m 0,0 km/h S-SW -3,4 C -1,5 C 0,0 km/h
02.12.2010 08:00 -2,2 C 82 % 1005,5 hPa 0,0 l/m 12,3 km/h S -4,8 C -7,8 C 6,8 km/h
02.12.2010 09:00 -2,1 C 79 % 1006,2 hPa 0,0 l/m 15,6 km/h S-SW -5,2 C -9,9 C 8,6 km/h
02.12.2010 10:00 0,8 C 70 % 1006,5 hPa 0,0 l/m 21,4 km/h W -4,0 C -9,2 C 11,9 km/h
02.12.2010 11:00 3,8 C 59 % 1006,2 hPa 0,0 l/m 0,0 km/h W-SW -3,5 C 3,8 C 0,0 km/h
02.12.2010 12:00 3,1 C 58 % 1006,0 hPa 0,0 l/m 0,0 km/h W -4,3 C 3,1 C 0,0 km/h
02.12.2010 13:00 2,5 C 58 % 1005,7 hPa 0,0 l/m 0,0 km/h W-NW -4,9 C 2,5 C 0,0 km/h
02.12.2010 14:00 4,5 C 54 % 1005,5 hPa 0,0 l/m 0,0 km/h N-NW -4,0 C 4,5 C 0,0 km/h
02.12.2010 15:00 4,9 C 53 % 1005,7 hPa 0,0 l/m 0,0 km/h N -3,9 C 4,9 C 0,0 km/h
02.12.2010 16:00 -3,5 C 71 % 1005,9 hPa 0,0 l/m 0,0 km/h O-SO -8,0 C -3,5 C 0,0 km/h
02.12.2010 17:00 -6,8 C 82 % 1006,1 hPa 0,0 l/m 0,0 km/h SO -9,3 C -6,8 C 0,0 km/h
02.12.2010 18:00 -7,1 C 85 % 1006,5 hPa 0,0 l/m 0,0 km/h O-NO -9,2 C -7,1 C 0,0 km/h
02.12.2010 19:00 -6,7 C 86 % 1006,4 hPa 0,0 l/m 0,0 km/h O-SO -8,6 C -6,7 C 0,0 km/h
02.12.2010 20:00 -7,4 C 87 % 1006,3 hPa 0,0 l/m 0,0 km/h SO -9,2 C -7,4 C 0,0 km/h
02.12.2010 21:00 -8,4 C 87 % 1006,5 hPa 0,0 l/m 0,0 km/h SO -10,2 C -8,4 C 0,0 km/h
02.12.2010 22:00 -7,8 C 87 % 1006,6 hPa 0,0 l/m 0,0 km/h SO -9,6 C -7,8 C 0,0 km/h
02.12.2010 23:00 -8,2 C 87 % 1006,6 hPa 0,0 l/m 0,0 km/h SO -10,0 C -8,2 C 0,0 km/h
03.12.2010 00:00 -7,1 C 88 % 1006,5 hPa 0,0 l/m 0,0 km/h SO -8,7 C -7,1 C 0,0 km/h
03.12.2010 01:00 -6,7 C 88 % 1006,4 hPa 0,0 l/m 0,0 km/h SO -8,3 C -6,7 C 0,0 km/h
03.12.2010 02:00 -7,1 C 88 % 1006,2 hPa 0,0 l/m 2,6 km/h SO -8,7 C -7,1 C 1,4 km/h
03.12.2010 03:00 -8,1 C 88 % 1006,1 hPa 0,0 l/m 0,0 km/h SO -9,7 C -8,1 C 0,0 km/h
03.12.2010 04:00 -7,1 C 88 % 1006,1 hPa 0,0 l/m 0,0 km/h O-SO -8,7 C -7,1 C 0,0 km/h
03.12.2010 05:00 -9,5 C 87 % 1006,1 hPa 0,0 l/m 0,0 km/h O-NO -11,2 C -9,5 C 0,0 km/h
03.12.2010 06:00 -9,9 C 88 % 1006,3 hPa 0,0 l/m 0,0 km/h O-SO -11,5 C -9,9 C 0,0 km/h
03.12.2010 07:00 -11,1 C 87 % 1006,7 hPa 0,0 l/m 0,0 km/h O-NO -12,8 C -11,1 C 0,0 km/h
03.12.2010 08:00 -10,2 C 88 % 1006,6 hPa 0,0 l/m 0,0 km/h O-SO -11,8 C -10,2 C 0,0 km/h
03.12.2010 09:00 -4,8 C 88 % 1007,1 hPa 0,0 l/m 0,0 km/h O-SO -6,5 C -4,8 C 0,0 km/h
03.12.2010 10:00 -2,2 C 83 % 1007,1 hPa 0,0 l/m 0,0 km/h NW -4,7 C -2,2 C 0,0 km/h
03.12.2010 11:00 -1,4 C 76 % 1007,0 hPa 0,0 l/m 0,0 km/h NW -5,1 C -1,4 C 0,0 km/h
03.12.2010 12:00 -1,3 C 77 % 1006,9 hPa 0,0 l/m 0,0 km/h W-NW -4,8 C -1,3 C 0,0 km/h
03.12.2010 13:00 -2,7 C 78 % 1007,3 hPa 0,0 l/m 0,0 km/h N-NO -6,0 C -2,7 C 0,0 km/h
03.12.2010 14:00 -4,2 C 81 % 1007,5 hPa 0,0 l/m 0,0 km/h W-NW -7,0 C -4,2 C 0,0 km/h
03.12.2010 15:00 -4,2 C 84 % 1008,7 hPa 0,0 l/m 0,0 km/h S -6,5 C -4,2 C 0,0 km/h
03.12.2010 16:00 -5,4 C 86 % 1009,5 hPa 0,0 l/m 0,0 km/h SW -7,4 C -5,4 C 0,0 km/h
03.12.2010 17:00 -5,5 C 88 % 1010,4 hPa 0,0 l/m 0,0 km/h W -7,2 C -5,5 C 0,0 km/h
03.12.2010 18:00 -5,4 C 88 % 1011,7 hPa 0,0 l/m 0,0 km/h W-NW -7,1 C -5,4 C 0,0 km/h
03.12.2010 19:00 -5,4 C 88 % 1012,5 hPa 0,0 l/m 0,0 km/h SW -7,1 C -5,4 C 0,0 km/h
03.12.2010 20:00 -5,1 C 88 % 1013,5 hPa 0,0 l/m 0,0 km/h N-NO -6,8 C -5,1 C 0,0 km/h
03.12.2010 21:00 -4,9 C 88 % 1013,8 hPa 0,0 l/m 0,0 km/h O-NO -6,6 C -4,9 C 0,0 km/h
03.12.2010 22:00 -5,2 C 88 % 1014,4 hPa 0,0 l/m 0,0 km/h O-SO -6,9 C -5,2 C 0,0 km/h
03.12.2010 23:00 -5,6 C 88 % 1014,4 hPa 0,0 l/m 0,0 km/h O-SO -7,3 C -5,6 C 0,0 km/h
04.12.2010 00:00 -4,7 C 88 % 1015,0 hPa 0,0 l/m 0,0 km/h O-SO -6,4 C -4,7 C 0,0 km/h
04.12.2010 01:00 -4,4 C 88 % 1015,2 hPa 0,0 l/m 0,0 km/h O -6,1 C -4,4 C 0,0 km/h
04.12.2010 02:00 -4,1 C 88 % 1015,6 hPa 0,0 l/m 0,0 km/h SO -5,8 C -4,1 C 0,0 km/h
04.12.2010 03:00 -3,8 C 88 % 1016,0 hPa 0,0 l/m 0,0 km/h SO -5,5 C -3,8 C 0,0 km/h
04.12.2010 04:00 -3,5 C 88 % 1016,4 hPa 0,0 l/m 0,0 km/h O -5,2 C -3,5 C 0,0 km/h
04.12.2010 05:00 -3,3 C 88 % 1016,9 hPa 0,0 l/m 0,0 km/h O-SO -5,0 C -3,3 C 0,0 km/h
04.12.2010 06:00 -2,9 C 88 % 1017,1 hPa 0,0 l/m 0,0 km/h SO -4,6 C -2,9 C 0,0 km/h
04.12.2010 07:00 -2,9 C 88 % 1017,4 hPa 0,0 l/m 0,0 km/h SO -4,6 C -2,9 C 0,0 km/h
04.12.2010 08:00 -2,9 C 88 % 1018,2 hPa 0,0 l/m 0,0 km/h NO -4,6 C -2,9 C 0,0 km/h
04.12.2010 09:00 -2,9 C 88 % 1018,7 hPa 0,0 l/m 0,0 km/h O-NO -4,6 C -2,9 C 0,0 km/h
04.12.2010 10:00 5,1 C 83 % 1018,9 hPa 0,0 l/m 0,0 km/h W 2,5 C 5,1 C 0,0 km/h
04.12.2010 11:00 2,4 C 67 % 1019,0 hPa 0,0 l/m 7,1 km/h SW -3,1 C 1,7 C 4,0 km/h
04.12.2010 12:00 1,9 C 64 % 1018,3 hPa 0,0 l/m 25,3 km/h W-SW -4,2 C -9,2 C 14,0 km/h
04.12.2010 13:00 2,1 C 64 % 1017,4 hPa 0,0 l/m 6,5 km/h W -4,0 C 2,0 C 3,6 km/h
04.12.2010 14:00 2,5 C 62 % 1017,8 hPa 0,0 l/m 5,2 km/h S-SW -4,0 C 2,5 C 2,9 km/h
04.12.2010 15:00 2,8 C 61 % 1017,4 hPa 0,0 l/m 17,5 km/h SW -4,0 C -4,9 C 9,7 km/h
04.12.2010 16:00 -3,6 C 72 % 1017,8 hPa 0,4 l/m 0,0 km/h O-SO -7,9 C -3,6 C 0,0 km/h
04.12.2010 17:00 -6,1 C 81 % 1017,5 hPa 0,0 l/m 0,0 km/h O -8,8 C -6,1 C 0,0 km/h
04.12.2010 18:00 -5,9 C 86 % 1017,5 hPa 0,0 l/m 0,0 km/h O-NO -7,9 C -5,9 C 0,0 km/h
04.12.2010 19:00 -6,5 C 87 % 1017,4 hPa 0,0 l/m 0,0 km/h O-NO -8,3 C -6,5 C 0,0 km/h
04.12.2010 20:00 -6,5 C 87 % 1016,9 hPa 0,0 l/m 0,0 km/h O-NO -8,3 C -6,5 C 0,0 km/h
04.12.2010 21:00 -6,7 C 87 % 1016,4 hPa 0,0 l/m 0,0 km/h O-SO -8,5 C -6,7 C 0,0 km/h
04.12.2010 22:00 -6,7 C 88 % 1016,7 hPa 0,0 l/m 0,0 km/h O-SO -8,3 C -6,7 C 0,0 km/h
04.12.2010 23:00 -5,5 C 88 % 1015,7 hPa 0,0 l/m 0,0 km/h SO -7,2 C -5,5 C 0,0 km/h
05.12.2010 00:00 -5,0 C 88 % 1014,8 hPa 0,0 l/m 0,0 km/h O-NO -6,7 C -5,0 C 0,0 km/h
05.12.2010 01:00 -5,2 C 88 % 1014,3 hPa 0,0 l/m 0,0 km/h O-SO -6,9 C -5,2 C 0,0 km/h
05.12.2010 02:00 -6,2 C 88 % 1013,6 hPa 0,0 l/m 0,0 km/h O-SO -7,9 C -6,2 C 0,0 km/h
05.12.2010 03:00 -5,6 C 88 % 1012,8 hPa 0,0 l/m 0,0 km/h NO -7,3 C -5,6 C 0,0 km/h
05.12.2010 04:00 -5,7 C 88 % 1011,9 hPa 0,0 l/m 0,0 km/h N-NW -7,4 C -5,7 C 0,0 km/h
05.12.2010 05:00 -5,6 C 88 % 1010,8 hPa 0,0 l/m 0,0 km/h N-NO -7,3 C -5,6 C 0,0 km/h
05.12.2010 06:00 -5,1 C 88 % 1010,1 hPa 0,0 l/m 0,0 km/h N -6,8 C -5,1 C 0,0 km/h
05.12.2010 07:00 -4,6 C 88 % 1009,3 hPa 0,0 l/m 0,0 km/h S -6,3 C -4,6 C 0,0 km/h
05.12.2010 08:00 -3,6 C 88 % 1009,2 hPa 0,0 l/m 10,4 km/h N -5,3 C -7,8 C 5,8 km/h
05.12.2010 09:00 -2,6 C 88 % 1009,3 hPa 0,0 l/m 0,0 km/h SO -4,3 C -2,6 C 0,0 km/h
05.12.2010 10:00 -1,5 C 86 % 1009,1 hPa 0,0 l/m 1,3 km/h O -3,5 C -1,5 C 0,7 km/h
05.12.2010 11:00 0,4 C 84 % 1008,2 hPa 0,0 l/m 3,2 km/h S-SW -2,0 C 0,4 C 1,8 km/h
05.12.2010 12:00 2,9 C 65 % 1007,7 hPa 0,0 l/m 36,3 km/h W-SW -3,0 C -10,9 C 20,2 km/h
05.12.2010 13:00 4,2 C 67 % 1006,7 hPa 0,0 l/m 0,0 km/h S-SW -1,4 C 4,2 C 0,0 km/h
05.12.2010 14:00 4,4 C 66 % 1006,2 hPa 0,4 l/m 22,7 km/h S-SO -1,4 C -5,0 C 12,6 km/h
05.12.2010 15:00 2,5 C 84 % 1005,9 hPa 1,1 l/m 26,6 km/h S-SW 0,1 C -8,9 C 14,8 km/h
05.12.2010 16:00 1,6 C 87 % 1005,1 hPa 1,1 l/m 20,1 km/h SO -0,3 C -7,6 C 11,2 km/h
05.12.2010 17:00 1,3 C 87 % 1004,2 hPa 0,4 l/m 0,0 km/h SO -0,6 C 1,3 C 0,0 km/h
05.12.2010 18:00 0,9 C 87 % 1004,1 hPa 1,4 l/m 0,0 km/h O-NO -1,0 C 0,9 C 0,0 km/h
05.12.2010 19:00 0,5 C 87 % 1004,0 hPa 1,1 l/m 0,0 km/h N-NO -1,4 C 0,5 C 0,0 km/h
05.12.2010 20:00 0,8 C 87 % 1003,5 hPa 0,4 l/m 0,0 km/h S-SW -1,1 C 0,8 C 0,0 km/h
05.12.2010 21:00 2,5 C 87 % 1003,2 hPa 0,4 l/m 0,6 km/h S-SW 0,6 C 2,5 C 0,4 km/h
05.12.2010 22:00 2,6 C 87 % 1002,6 hPa 0,4 l/m 2,6 km/h N-NO 0,7 C 2,6 C 1,4 km/h
05.12.2010 23:00 1,6 C 87 % 1001,9 hPa 0,0 l/m 0,0 km/h N-NO -0,3 C 1,6 C 0,0 km/h
Min-Datum _ 03.12.10 02.12.10 01.12.10 - 29.11.10 - 03.12.10 29.11.10 29.11.10
_ Min-Zeit 07:30 15:30 14:30 - 00:30 - 07:30 15:30 00:30
Minimum _ -11,1 C 53 % 994,6 hPa - 0,0 km/h - -12,8 C -12,6 C 0,0 km/h
Max-Datum _ 04.12.10 29.11.10 04.12.10 05.12.10 05.12.10 - 04.12.10 04.12.10 05.12.10
_ Max-Zeit 10:30 22:30 11:30 18:30 12:30 - 10:30 10:30 12:30
Maximum _ 5,1 C 89 % 1019,0 hPa 1,4 l/m 36,3 km/h
W-SW
- 2,5 C 5,1 C 20,2 km/h
W-SW
Durchschnitt _ -2,7 C 85 % 1006,6 hPa #6,8 l/m 2,6 km/h O -5,0 C -3,8 C 1,4 km/h